createdAt,value
2019-05-22T00:00:41.230Z,24.90
2019-05-22T00:03:13.314Z,25.20
2019-05-22T00:05:45.129Z,23.67
2019-05-22T00:08:16.973Z,27.10
2019-05-22T00:10:49.717Z,26.60
2019-05-22T00:13:22.858Z,24.95
2019-05-22T00:15:54.524Z,23.90
2019-05-22T00:18:25.507Z,24.92
2019-05-22T00:20:57.205Z,26.12
2019-05-22T00:23:29.568Z,25.80
2019-05-22T00:26:00.455Z,27.40
2019-05-22T00:28:32.228Z,25.08
2019-05-22T00:31:03.473Z,27.22
2019-05-22T00:33:36.376Z,25.92
2019-05-22T00:36:08.217Z,25.62
2019-05-22T00:38:39.741Z,28.15
2019-05-22T00:41:11.874Z,28.98
2019-05-22T00:43:44.588Z,26.95
2019-05-22T00:46:20.358Z,25.77
2019-05-22T00:48:52.140Z,27.85
2019-05-22T00:51:40.840Z,27.52
2019-05-22T00:54:38.896Z,27.50
2019-05-22T00:57:34.773Z,26.62
2019-05-22T01:00:19.225Z,27.42
2019-05-22T01:02:50.665Z,26.12
2019-05-22T01:05:22.508Z,29.70
2019-05-22T01:07:57.253Z,27.73
2019-05-22T01:10:30.290Z,25.52
2019-05-22T01:13:03.298Z,28.40
2019-05-22T01:15:35.086Z,28.52
2019-05-22T01:18:10.307Z,25.05
2019-05-22T01:20:42.096Z,25.35
2019-05-22T01:23:17.827Z,30.75
2019-05-22T01:25:48.006Z,27.22
2019-05-22T01:28:19.687Z,29.27
2019-05-22T01:31:03.013Z,32.00
2019-05-22T01:33:51.063Z,28.45
2019-05-22T01:36:30.269Z,30.92
2019-05-22T01:39:20.885Z,31.73
2019-05-22T01:41:53.265Z,30.15
2019-05-22T01:44:24.781Z,32.78
2019-05-22T01:46:56.499Z,31.00
2019-05-22T01:49:26.734Z,31.93
2019-05-22T01:51:57.578Z,29.30
2019-05-22T01:54:28.199Z,29.57
2019-05-22T01:57:06.338Z,30.12
2019-05-22T01:59:38.744Z,29.18
2019-05-22T02:02:11.687Z,32.48
2019-05-22T02:04:42.172Z,27.32
2019-05-22T02:07:14.208Z,35.88
2019-05-22T02:09:46.025Z,27.50
2019-05-22T02:12:27.693Z,30.80
2019-05-22T02:14:58.433Z,24.10
2019-05-22T02:17:33.754Z,26.57
2019-05-22T02:20:06.571Z,24.43
2019-05-22T02:22:38.610Z,27.98
2019-05-22T02:25:10.019Z,21.80
2019-05-22T02:27:41.176Z,24.72
2019-05-22T02:30:13.864Z,26.60
2019-05-22T02:32:45.950Z,22.48
2019-05-22T02:35:16.185Z,23.65
2019-05-22T02:37:47.939Z,26.12
2019-05-22T02:40:23.834Z,25.17
2019-05-22T02:42:54.962Z,21.82
2019-05-22T02:45:26.492Z,22.82
2019-05-22T02:47:58.497Z,24.00
2019-05-22T02:50:29.715Z,22.27
2019-05-22T02:53:02.043Z,21.33
2019-05-22T02:55:32.746Z,22.87
2019-05-22T02:58:03.721Z,20.85
2019-05-22T03:01:00.237Z,21.90
2019-05-22T03:03:32.023Z,24.75
2019-05-22T03:06:02.225Z,22.10
2019-05-22T03:09:06.087Z,25.35
2019-05-22T03:11:39.596Z,24.70
2019-05-22T03:14:11.254Z,23.57
2019-05-22T03:16:52.047Z,23.22
2019-05-22T03:19:36.622Z,26.02
2019-05-22T03:22:20.752Z,27.95
2019-05-22T03:24:53.438Z,23.15
2019-05-22T03:27:49.188Z,24.57
2019-05-22T03:30:30.623Z,26.40
2019-05-22T03:33:03.911Z,28.27
2019-05-22T03:35:43.778Z,22.90
2019-05-22T03:38:15.352Z,27.22
2019-05-22T03:40:46.430Z,27.67
2019-05-22T03:43:22.462Z,30.27
2019-05-22T03:45:54.353Z,25.02
2019-05-22T03:48:26.406Z,28.83
2019-05-22T03:51:00.694Z,27.85
2019-05-22T03:53:30.716Z,29.30
2019-05-22T03:56:03.236Z,29.35
2019-05-22T03:58:34.592Z,29.82
2019-05-22T04:01:06.534Z,30.02
2019-05-22T04:03:45.649Z,32.15
2019-05-22T04:06:17.589Z,28.92
2019-05-22T04:08:48.338Z,32.98
2019-05-22T04:11:20.004Z,27.32
2019-05-22T04:13:50.652Z,27.02
2019-05-22T04:16:24.916Z,30.45
2019-05-22T04:18:57.826Z,33.45
2019-05-22T04:21:31.178Z,29.65
2019-05-22T04:24:01.379Z,29.80
2019-05-22T04:26:33.338Z,28.90
2019-05-22T04:29:06.043Z,30.70
2019-05-22T04:31:46.901Z,30.20
2019-05-22T04:34:17.823Z,32.25
2019-05-22T04:36:48.220Z,29.80
2019-05-22T04:39:24.176Z,28.62
2019-05-22T04:41:55.181Z,30.02
2019-05-22T04:44:26.401Z,28.30
2019-05-22T04:46:56.968Z,28.85
2019-05-22T04:49:27.036Z,32.28
2019-05-22T04:51:57.297Z,26.12
2019-05-22T04:54:27.521Z,31.17
2019-05-22T04:56:57.922Z,24.95
2019-05-22T04:59:29.695Z,27.35
2019-05-22T05:01:59.891Z,25.50
2019-05-22T05:04:30.700Z,26.57
2019-05-22T05:07:04.552Z,24.25
2019-05-22T05:09:34.917Z,25.08
2019-05-22T05:12:06.182Z,23.95
2019-05-22T05:14:36.562Z,26.65
2019-05-22T05:17:08.466Z,27.45
2019-05-22T05:19:38.492Z,26.25
2019-05-22T05:22:08.631Z,26.95
2019-05-22T05:24:38.930Z,26.25
2019-05-22T05:27:10.777Z,26.60
2019-05-22T05:29:40.857Z,27.55
2019-05-22T05:32:11.786Z,24.23
2019-05-22T05:34:50.063Z,27.07
2019-05-22T05:37:22.934Z,29.60
2019-05-22T05:40:39.242Z,22.73
2019-05-22T05:43:15.059Z,27.80
2019-05-22T05:45:48.666Z,27.07
2019-05-22T05:48:25.872Z,27.02
2019-05-22T05:51:35.640Z,25.25
2019-05-22T05:54:16.017Z,29.87
2019-05-22T05:56:49.745Z,31.02
2019-05-22T05:59:22.535Z,26.52
2019-05-22T06:01:54.774Z,28.27
2019-05-22T06:04:37.979Z,28.57
2019-05-22T06:07:21.724Z,26.00
2019-05-22T06:10:25.337Z,24.63
2019-05-22T06:12:55.921Z,26.45
2019-05-22T06:15:46.453Z,25.43
2019-05-22T06:18:32.625Z,24.23
2019-05-22T06:21:04.990Z,27.67
2019-05-22T06:24:12.265Z,21.55
2019-05-22T06:27:08.159Z,25.60
2019-05-22T06:30:07.127Z,22.13
2019-05-22T06:33:30.519Z,24.57
2019-05-22T06:36:04.719Z,22.05
2019-05-22T06:39:03.098Z,22.25
2019-05-22T06:41:37.432Z,19.90
2019-05-22T06:44:40.837Z,19.70
2019-05-22T06:47:28.526Z,20.30
2019-05-22T06:49:59.253Z,12.00
2019-05-22T06:52:30.683Z,9.38
2019-05-22T06:55:01.120Z,8.53
2019-05-22T06:57:33.410Z,9.75
2019-05-22T07:00:16.378Z,11.38
2019-05-22T07:02:47.150Z,6.33
2019-05-22T07:05:17.495Z,7.53
2019-05-22T07:07:48.012Z,6.67
2019-05-22T07:10:19.537Z,8.03
2019-05-22T07:12:51.213Z,7.25
2019-05-22T07:15:31.248Z,8.48
2019-05-22T07:18:03.075Z,9.08
2019-05-22T07:20:37.981Z,9.90
2019-05-22T07:23:11.717Z,12.85
2019-05-22T07:25:44.653Z,10.82
2019-05-22T07:28:18.163Z,10.85
2019-05-22T07:30:48.780Z,12.40
2019-05-22T07:33:19.683Z,13.22
2019-05-22T07:36:08.624Z,13.28
2019-05-22T07:38:22.098Z,13.03
2019-05-22T07:40:52.940Z,17.20
2019-05-22T07:43:23.688Z,13.50
2019-05-22T07:45:57.352Z,14.30
2019-05-22T07:48:28.925Z,11.60
2019-05-22T07:50:59.546Z,13.45
2019-05-22T07:53:29.605Z,12.43
2019-05-22T07:56:02.552Z,11.10
2019-05-22T07:58:34.611Z,11.35
2019-05-22T08:01:04.872Z,11.25
2019-05-22T08:03:35.816Z,10.90
2019-05-22T08:06:08.437Z,9.30
2019-05-22T08:08:41.437Z,10.38
2019-05-22T08:11:12.139Z,8.98
2019-05-22T08:13:43.445Z,10.10
2019-05-22T08:16:13.826Z,10.08
2019-05-22T08:18:44.385Z,9.35
2019-05-22T08:21:14.789Z,8.20
2019-05-22T08:23:48.260Z,8.68
2019-05-22T08:26:21.033Z,10.32
2019-05-22T08:28:51.617Z,11.50
2019-05-22T08:31:24.701Z,9.95
2019-05-22T08:33:55.306Z,10.65
2019-05-22T08:36:26.969Z,11.78
2019-05-22T08:38:58.611Z,10.85
2019-05-22T08:41:32.743Z,10.00
2019-05-22T08:44:16.219Z,12.50
2019-05-22T08:46:35.776Z,10.15
2019-05-22T08:49:07.186Z,8.88
2019-05-22T08:51:37.432Z,12.82
2019-05-22T08:54:07.956Z,9.33
2019-05-22T08:56:40.599Z,9.13
2019-05-22T08:59:19.391Z,9.73
2019-05-22T09:01:42.775Z,9.75
2019-05-22T09:04:12.981Z,10.80
2019-05-22T09:06:43.508Z,9.25
2019-05-22T09:09:13.844Z,7.60
2019-05-22T09:11:43.878Z,7.20
2019-05-22T09:14:13.985Z,6.97
2019-05-22T09:16:46.314Z,7.62
2019-05-22T09:19:16.597Z,7.90
2019-05-22T09:21:48.037Z,7.40
2019-05-22T09:24:20.023Z,7.60
2019-05-22T09:26:50.421Z,7.85
2019-05-22T09:29:22.592Z,8.50
2019-05-22T09:31:53.077Z,10.95
2019-05-22T09:34:23.261Z,11.57
2019-05-22T09:36:53.581Z,16.37
2019-05-22T09:39:23.961Z,10.88
2019-05-22T09:41:54.088Z,11.90
2019-05-22T09:44:24.623Z,11.93
2019-05-22T09:46:55.967Z,13.38
2019-05-22T09:49:26.569Z,15.48
2019-05-22T09:51:57.058Z,12.88
2019-05-22T09:54:27.815Z,13.35
2019-05-22T09:56:59.617Z,14.07
2019-05-22T09:59:29.854Z,13.50
2019-05-22T10:02:00.266Z,15.93
2019-05-22T10:04:32.030Z,12.95
2019-05-22T10:07:02.114Z,15.98
2019-05-22T10:09:32.299Z,22.27
2019-05-22T10:12:02.883Z,15.55
2019-05-22T10:14:33.365Z,16.60
2019-05-22T10:17:05.479Z,17.27
2019-05-22T10:19:35.555Z,15.55
2019-05-22T10:22:05.668Z,16.97
2019-05-22T10:24:36.358Z,15.88
2019-05-22T10:27:07.629Z,15.32
2019-05-22T10:29:45.412Z,17.55
2019-05-22T10:32:15.741Z,18.57
2019-05-22T10:34:45.824Z,17.37
2019-05-22T10:37:16.393Z,16.67
2019-05-22T10:39:47.141Z,21.42
2019-05-22T10:42:19.249Z,13.22
2019-05-22T10:44:50.218Z,14.13
2019-05-22T10:47:20.570Z,13.35
2019-05-22T10:49:51.682Z,14.58
2019-05-22T10:52:22.212Z,17.48
2019-05-22T10:54:55.942Z,18.52
2019-05-22T10:57:24.992Z,20.27
2019-05-22T10:59:55.173Z,18.65
2019-05-22T11:02:25.465Z,19.67
2019-05-22T11:04:55.579Z,17.35
2019-05-22T11:07:26.638Z,18.05
2019-05-22T11:10:00.775Z,18.12
2019-05-22T11:12:31.348Z,20.20
2019-05-22T11:15:02.011Z,22.00
2019-05-22T11:17:33.209Z,25.25
2019-05-22T11:20:03.345Z,22.52
2019-05-22T11:22:35.044Z,21.15
2019-05-22T11:25:06.348Z,21.97
2019-05-22T11:27:37.987Z,21.23
2019-05-22T11:30:08.926Z,23.00
2019-05-22T11:32:39.456Z,26.85
2019-05-22T11:35:10.260Z,20.55
2019-05-22T11:37:40.573Z,25.45
2019-05-22T11:40:12.082Z,25.70
2019-05-22T11:42:43.076Z,22.50
2019-05-22T11:45:16.270Z,22.90
2019-05-22T11:47:46.728Z,22.32
2019-05-22T11:50:18.787Z,22.22
2019-05-22T11:52:48.872Z,20.45
2019-05-22T11:55:20.890Z,19.05
2019-05-22T11:57:51.799Z,18.65
2019-05-22T12:00:23.501Z,18.57
2019-05-22T12:02:54.709Z,20.57
2019-05-22T12:05:26.434Z,18.98
2019-05-22T12:07:58.215Z,18.98
2019-05-22T12:10:30.387Z,17.98
2019-05-22T12:13:01.346Z,19.62
2019-05-22T12:15:31.862Z,19.17
2019-05-22T12:18:02.329Z,19.62
2019-05-22T12:20:32.690Z,17.95
2019-05-22T12:23:02.969Z,22.32
2019-05-22T12:25:33.460Z,18.15
2019-05-22T12:28:05.389Z,18.27
2019-05-22T12:30:36.395Z,22.15
2019-05-22T12:33:13.142Z,17.10
2019-05-22T12:35:41.190Z,16.50
2019-05-22T12:38:13.310Z,16.65
2019-05-22T12:40:44.101Z,16.77
2019-05-22T12:43:15.250Z,15.85
2019-05-22T12:45:45.792Z,17.05
2019-05-22T12:48:15.948Z,17.70
2019-05-22T12:50:46.531Z,15.08
2019-05-22T12:53:17.231Z,18.52
2019-05-22T12:55:47.447Z,19.10
2019-05-22T12:58:18.178Z,16.30
2019-05-22T13:00:48.441Z,17.85
2019-05-22T13:03:20.838Z,17.73
2019-05-22T13:05:52.850Z,20.70
2019-05-22T13:08:23.413Z,16.90
2019-05-22T13:10:54.220Z,18.35
2019-05-22T13:13:25.453Z,37.78
2019-05-22T13:15:58.668Z,20.50
2019-05-22T13:18:29.386Z,18.07
2019-05-22T13:21:00.839Z,16.75
2019-05-22T13:23:38.190Z,16.15
2019-05-22T13:26:10.520Z,20.00
2019-05-22T13:28:45.237Z,20.57
2019-05-22T13:31:15.623Z,29.98
2019-05-22T13:33:46.158Z,21.87
2019-05-22T13:36:18.050Z,20.90
2019-05-22T13:38:48.778Z,25.05
2019-05-22T13:41:19.657Z,20.10
2019-05-22T13:43:50.484Z,20.55
2019-05-22T13:46:20.764Z,19.25
2019-05-22T13:48:50.903Z,21.50
2019-05-22T13:51:21.380Z,16.97
2019-05-22T13:53:53.619Z,21.57
2019-05-22T13:56:25.594Z,20.70
2019-05-22T13:58:57.598Z,19.17
2019-05-22T14:01:28.299Z,20.05
2019-05-22T14:03:58.310Z,20.85
2019-05-22T14:06:28.538Z,19.32
2019-05-22T14:08:59.108Z,17.42
2019-05-22T14:11:29.292Z,19.15
2019-05-22T14:13:59.482Z,19.52
2019-05-22T14:16:29.760Z,17.65
2019-05-22T14:18:59.957Z,18.02
2019-05-22T14:21:30.065Z,20.52
2019-05-22T14:24:00.122Z,23.95
2019-05-22T14:26:30.338Z,18.82
2019-05-22T14:29:01.472Z,16.73
2019-05-22T14:31:31.602Z,16.90
2019-05-22T14:34:02.672Z,16.82
2019-05-22T14:36:33.017Z,18.50
2019-05-22T14:39:06.036Z,16.87
2019-05-22T14:41:36.141Z,18.62
2019-05-22T14:44:06.640Z,18.07
2019-05-22T14:46:36.759Z,18.37
2019-05-22T14:49:06.996Z,19.20
2019-05-22T14:51:38.199Z,18.60
2019-05-22T14:54:09.671Z,20.27
2019-05-22T14:56:40.724Z,18.55
2019-05-22T14:59:11.525Z,20.70
2019-05-22T15:01:41.961Z,17.60
2019-05-22T15:04:13.154Z,18.65
2019-05-22T15:06:43.588Z,20.25
2019-05-22T15:09:14.775Z,16.35
2019-05-22T15:11:44.878Z,18.82
2019-05-22T15:14:15.270Z,17.15
2019-05-22T15:16:45.418Z,17.02
2019-05-22T15:19:15.622Z,15.43
2019-05-22T15:21:45.751Z,16.95
2019-05-22T15:24:15.761Z,25.82
2019-05-22T15:26:47.121Z,19.07
2019-05-22T15:29:17.863Z,14.35
2019-05-22T15:31:48.448Z,14.18
2019-05-22T15:34:20.326Z,14.80
2019-05-22T15:36:50.605Z,15.63
2019-05-22T15:39:23.545Z,17.75
2019-05-22T15:41:55.770Z,14.05
2019-05-22T15:44:27.881Z,13.80
2019-05-22T15:46:58.134Z,15.08
2019-05-22T15:49:29.860Z,18.12
2019-05-22T15:52:00.120Z,14.78
2019-05-22T15:54:31.153Z,13.13
2019-05-22T15:57:03.745Z,15.80
2019-05-22T15:59:35.796Z,14.13
2019-05-22T16:02:06.344Z,19.52
2019-05-22T16:04:38.882Z,14.80
2019-05-22T16:07:09.051Z,15.83
2019-05-22T16:09:39.866Z,15.43
2019-05-22T16:12:10.276Z,14.05
2019-05-22T16:14:41.516Z,14.15
2019-05-22T16:17:13.548Z,16.60
2019-05-22T16:19:44.609Z,14.85
2019-05-22T16:22:14.778Z,16.70
2019-05-22T16:24:45.425Z,13.72
2019-05-22T16:27:18.160Z,14.55
2019-05-22T16:29:49.407Z,15.83
2019-05-22T16:32:21.981Z,17.02
2019-05-22T16:34:53.197Z,16.97
2019-05-22T16:37:24.585Z,14.53
2019-05-22T16:39:54.713Z,16.60
2019-05-22T16:42:24.943Z,15.83
2019-05-22T16:44:56.053Z,16.67
2019-05-22T16:47:26.306Z,15.65
2019-05-22T16:49:56.419Z,16.55
2019-05-22T16:52:28.243Z,14.33
2019-05-22T16:55:01.337Z,17.17
2019-05-22T16:57:32.350Z,15.23
2019-05-22T17:00:03.615Z,15.35
2019-05-22T17:02:37.643Z,13.08
2019-05-22T17:05:10.417Z,13.40
2019-05-22T17:07:41.376Z,14.98
2019-05-22T17:10:14.608Z,15.68
2019-05-22T17:12:46.421Z,17.07
2019-05-22T17:15:18.326Z,13.32
2019-05-22T17:17:50.639Z,16.25
2019-05-22T17:20:24.531Z,13.00
2019-05-22T17:22:55.360Z,13.00
2019-05-22T17:25:28.006Z,17.30
2019-05-22T17:27:58.142Z,14.23
2019-05-22T17:30:30.317Z,16.50
2019-05-22T17:33:00.681Z,15.83
2019-05-22T17:35:32.182Z,15.93
2019-05-22T17:38:03.573Z,15.18
2019-05-22T17:40:36.301Z,16.35
2019-05-22T17:43:09.357Z,14.75
2019-05-22T17:45:42.717Z,15.50
2019-05-22T17:48:15.239Z,15.32
2019-05-22T17:50:47.181Z,17.07
2019-05-22T17:53:17.731Z,17.48
2019-05-22T17:55:48.742Z,15.85
2019-05-22T17:58:24.043Z,15.23
2019-05-22T18:00:53.378Z,14.78
2019-05-22T18:03:23.899Z,15.00
2019-05-22T18:05:54.987Z,16.55
2019-05-22T18:08:26.301Z,13.32
2019-05-22T18:10:58.907Z,13.50
2019-05-22T18:13:29.727Z,12.50
2019-05-22T18:16:04.243Z,13.32
2019-05-22T18:18:32.564Z,16.12
2019-05-22T18:21:03.247Z,13.68
2019-05-22T18:23:33.414Z,13.18
2019-05-22T18:26:03.478Z,13.78
2019-05-22T18:28:33.539Z,14.13
2019-05-22T18:31:04.222Z,12.82
2019-05-22T18:33:34.442Z,14.45
2019-05-22T18:36:04.739Z,16.25
2019-05-22T18:38:34.873Z,17.52
2019-05-22T18:41:05.178Z,16.10
2019-05-22T18:43:35.682Z,13.75
2019-05-22T18:46:05.761Z,13.68
2019-05-22T18:48:35.794Z,14.95
2019-05-22T18:51:06.257Z,15.23
2019-05-22T18:53:36.401Z,13.35
2019-05-22T18:56:06.641Z,15.05
2019-05-22T18:58:37.295Z,15.55
2019-05-22T19:01:08.163Z,15.53
2019-05-22T19:03:38.690Z,12.93
2019-05-22T19:06:09.444Z,13.88
2019-05-22T19:08:39.657Z,15.28
2019-05-22T19:11:10.159Z,17.40
2019-05-22T19:13:40.151Z,15.63
2019-05-22T19:16:10.396Z,15.70
2019-05-22T19:18:40.551Z,15.95
2019-05-22T19:21:11.065Z,15.10
2019-05-22T19:23:41.609Z,15.40
2019-05-22T19:26:11.769Z,17.37
2019-05-22T19:28:44.418Z,18.85
2019-05-22T19:31:15.036Z,15.85
2019-05-22T19:33:45.131Z,16.37
2019-05-22T19:36:15.537Z,19.20
2019-05-22T19:38:49.364Z,15.88
2019-05-22T19:41:19.810Z,19.23
2019-05-22T19:43:50.636Z,16.82
2019-05-22T19:46:21.172Z,18.10
2019-05-22T19:48:52.157Z,16.85
2019-05-22T19:51:22.579Z,15.20
2019-05-22T19:53:53.056Z,18.25
2019-05-22T19:56:24.101Z,14.35
2019-05-22T19:58:54.243Z,22.10
2019-05-22T20:01:25.106Z,17.10
2019-05-22T20:03:55.722Z,16.70
2019-05-22T20:06:26.595Z,16.35
2019-05-22T20:08:57.199Z,18.32
2019-05-22T20:11:28.043Z,19.37
2019-05-22T20:13:59.104Z,22.95
2019-05-22T20:16:29.618Z,18.77
2019-05-22T20:18:59.906Z,19.90
2019-05-22T20:21:30.151Z,16.95
2019-05-22T20:24:00.642Z,18.25
2019-05-22T20:26:31.145Z,20.35
2019-05-22T20:29:01.287Z,17.75
2019-05-22T20:31:31.882Z,18.20
2019-05-22T20:34:02.120Z,18.45
2019-05-22T20:36:32.740Z,16.00
2019-05-22T20:39:03.973Z,16.30
2019-05-22T20:41:34.328Z,16.95
2019-05-22T20:44:05.994Z,16.17
2019-05-22T20:46:37.861Z,14.73
2019-05-22T20:49:10.297Z,15.32
2019-05-22T20:51:41.215Z,17.48
2019-05-22T20:54:12.907Z,16.87
2019-05-22T20:56:46.885Z,19.52
2019-05-22T20:59:18.746Z,18.70
2019-05-22T21:01:49.309Z,17.92
2019-05-22T21:04:20.360Z,16.67
2019-05-22T21:07:00.104Z,17.52
2019-05-22T21:09:31.538Z,20.45
2019-05-22T21:12:03.234Z,15.38
2019-05-22T21:14:34.016Z,17.75
2019-05-22T21:17:05.727Z,16.20
2019-05-22T21:19:36.590Z,17.37
2019-05-22T21:22:07.855Z,17.25
2019-05-22T21:24:38.021Z,18.92
2019-05-22T21:27:09.129Z,20.27
2019-05-22T21:29:39.766Z,18.32
2019-05-22T21:32:10.410Z,17.30
2019-05-22T21:34:40.624Z,16.55
2019-05-22T21:37:11.241Z,17.87
2019-05-22T21:39:42.139Z,16.52
2019-05-22T21:42:13.091Z,19.40
2019-05-22T21:44:43.739Z,19.62
2019-05-22T21:47:14.733Z,16.62
2019-05-22T21:49:44.877Z,17.48
2019-05-22T21:52:17.466Z,21.48
2019-05-22T21:54:48.419Z,19.35
2019-05-22T21:57:19.009Z,16.93
2019-05-22T21:59:49.337Z,17.37
2019-05-22T22:02:27.890Z,17.02
2019-05-22T22:04:58.257Z,17.75
2019-05-22T22:07:30.632Z,19.52
2019-05-22T22:10:00.893Z,17.05
2019-05-22T22:12:32.753Z,17.35
2019-05-22T22:15:03.342Z,17.92
2019-05-22T22:17:37.596Z,19.80
2019-05-22T22:20:07.824Z,16.90
2019-05-22T22:22:37.972Z,17.20
2019-05-22T22:25:09.286Z,18.82
2019-05-22T22:27:39.711Z,18.73
2019-05-22T22:30:22.470Z,17.70
2019-05-22T22:32:53.182Z,19.75
2019-05-22T22:35:23.539Z,19.92
2019-05-22T22:37:53.570Z,17.92
2019-05-22T22:40:29.208Z,18.55
2019-05-22T22:43:01.105Z,20.32
2019-05-22T22:45:53.696Z,20.10
2019-05-22T22:48:25.894Z,18.57
2019-05-22T22:50:56.231Z,19.25
2019-05-22T22:53:26.902Z,20.77
2019-05-22T22:55:57.737Z,20.75
2019-05-22T22:58:28.457Z,19.45
2019-05-22T23:01:00.431Z,17.95
2019-05-22T23:03:32.157Z,19.40
2019-05-22T23:06:02.913Z,18.05
2019-05-22T23:08:35.174Z,24.35
2019-05-22T23:11:07.437Z,18.82
2019-05-22T23:13:38.424Z,20.23
2019-05-22T23:16:09.437Z,18.95
2019-05-22T23:19:33.689Z,19.60
2019-05-22T23:22:05.651Z,19.98
2019-05-22T23:24:38.820Z,19.23
2019-05-22T23:27:10.677Z,20.37
2019-05-22T23:29:41.809Z,19.80
2019-05-22T23:32:14.565Z,21.80
2019-05-22T23:34:47.351Z,19.95
2019-05-22T23:37:20.364Z,18.75
2019-05-22T23:39:52.946Z,21.30
2019-05-22T23:42:28.654Z,21.05
2019-05-22T23:45:01.098Z,20.25
2019-05-22T23:47:32.119Z,20.17
2019-05-22T23:50:03.673Z,18.82
2019-05-22T23:52:35.992Z,21.87
2019-05-22T23:55:09.532Z,19.87
2019-05-22T23:57:39.725Z,18.55
